This is the latest recevied weather packets stored in our database for station/object SQ6IUS-13. If no packets are shown the sender has not sent any weather packets the latest 10 day(s).
| Time | Temp. | Humidity | Pressure | Rain* | Wind** | Luminosity | Snow |
|---|---|---|---|---|---|---|---|
| 1777643052 | 29.44° C | 26% | 1025.9 hPa | - | - | - | - |
| 1777642154 | 29.44° C | 24% | 1026 hPa | - | - | - | - |
| 1777641257 | 29.44° C | 24% | 1026.2 hPa | - | - | - | - |
| 1777640358 | 27.78° C | 26% | 1026.3 hPa | - | - | - | - |
| 1777639459 | 26.11° C | 26% | 1026.5 hPa | - | - | - | - |
| 1777638560 | 29.44° C | 23% | 1026.6 hPa | - | - | - | - |
| 1777637662 | 24.44° C | 27% | 1026.9 hPa | - | - | - | - |
| 1777636768 | 26.67° C | 27% | 1027 hPa | - | - | - | - |
| 1777635869 | 26.67° C | 27% | 1027 hPa | - | - | - | - |
| 1777634961 | 25° C | 29% | 1027.1 hPa | - | - | - | - |
| 1777632264 | 24.44° C | 30% | 1027.3 hPa | - | - | - | - |
| 1777631365 | 21.11° C | 33% | 1027.5 hPa | - | - | - | - |
| 1777630466 | 22.78° C | 31% | 1027.6 hPa | - | - | - | - |
| 1777629567 | 22.78° C | 32% | 1027.5 hPa | - | - | - | - |
| 1777628667 | 20.56° C | 33% | 1027.7 hPa | - | - | - | - |
| 1777627768 | 20.56° C | 36% | 1027.9 hPa | - | - | - | - |
| 1777626870 | 19.44° C | 36% | 1027.9 hPa | - | - | - | - |
| 1777625970 | 18.89° C | 36% | 1027.9 hPa | - | - | - | - |
| 1777625072 | 18.33° C | 37% | 1028.1 hPa | - | - | - | - |
| 1777624172 | 17.22° C | 40% | 1028.2 hPa | - | - | - | - |
| 1777623274 | 17.22° C | 41% | 1028.1 hPa | - | - | - | - |
| 1777622374 | 16.67° C | 40% | 1028.2 hPa | - | - | - | - |
| 1777621475 | 16.67° C | 45% | 1028.3 hPa | - | - | - | - |
| 1777620577 | 15° C | 47% | 1028.3 hPa | - | - | - | - |
| 1777619678 | 14.44° C | 51% | 1028.3 hPa | - | - | - | - |
* Rain since midnight (hover to see other rain measurements)
** Current wind speed in m/s (hover to see current wind gust speed)